createdAt,value
2023-03-11T00:04:53.002Z,29.80
2023-03-11T00:09:55.592Z,30.70
2023-03-11T00:14:58.083Z,34.40
2023-03-11T00:20:00.596Z,26.90
2023-03-11T00:25:03.289Z,25.30
2023-03-11T00:30:06.642Z,25.30
2023-03-11T00:35:13.433Z,17.80
2023-03-11T00:40:18.597Z,26.50
2023-03-11T00:45:21.679Z,26.00
2023-03-11T00:50:27.756Z,26.10
2023-03-11T00:55:32.830Z,27.30
2023-03-11T01:00:35.489Z,26.70
2023-03-11T01:05:38.042Z,26.60
2023-03-11T01:10:40.669Z,26.70
2023-03-11T01:15:43.232Z,30.60
2023-03-11T01:20:47.092Z,32.60
2023-03-11T01:25:49.633Z,31.00
2023-03-11T01:30:52.308Z,30.70
2023-03-11T01:35:54.967Z,15.40
2023-03-11T01:40:57.631Z,33.00
2023-03-11T01:46:02.133Z,17.10
2023-03-11T01:51:06.615Z,32.00
2023-03-11T01:56:09.318Z,27.80
2023-03-11T02:01:12.779Z,28.70
2023-03-11T02:06:19.612Z,33.90
2023-03-11T02:11:26.471Z,24.00
2023-03-11T02:16:29.709Z,27.50
2023-03-11T02:21:34.617Z,27.50
2023-03-11T02:26:39.533Z,28.40
2023-03-11T02:31:43.485Z,26.40
2023-03-11T02:36:46.220Z,26.70
2023-03-11T02:41:48.930Z,24.70
2023-03-11T02:46:52.983Z,23.00
2023-03-11T02:51:55.654Z,22.30
2023-03-11T02:56:58.152Z,22.40
2023-03-11T03:02:00.653Z,23.30
2023-03-11T03:07:03.242Z,21.30
2023-03-11T03:12:06.286Z,20.30
2023-03-11T03:17:08.930Z,20.30
2023-03-11T03:22:12.432Z,17.80
2023-03-11T03:27:14.964Z,15.70
2023-03-11T03:32:17.481Z,18.70
2023-03-11T03:37:19.985Z,16.50
2023-03-11T03:42:25.050Z,17.70
2023-03-11T03:47:27.528Z,14.60
2023-03-11T03:52:30.094Z,15.30
2023-03-11T03:57:32.794Z,13.90
2023-03-11T04:02:35.338Z,13.90
2023-03-11T04:07:37.988Z,13.20
2023-03-11T04:12:40.472Z,12.30
2023-03-11T04:17:43.013Z,10.50
2023-03-11T04:22:45.486Z,12.30
2023-03-11T04:27:50.037Z,9.50
2023-03-11T04:32:52.636Z,9.90
2023-03-11T04:37:55.195Z,10.20
2023-03-11T04:42:57.773Z,8.00
2023-03-11T04:48:00.370Z,8.40
2023-03-11T04:53:02.929Z,9.40
2023-03-11T04:58:05.449Z,9.70
2023-03-11T05:03:08.124Z,8.30
2023-03-11T05:08:10.903Z,5.20
2023-03-11T05:13:13.406Z,6.80
2023-03-11T05:18:16.406Z,4.30
2023-03-11T05:23:19.369Z,2.90
2023-03-11T05:28:21.941Z,2.50
2023-03-11T05:33:24.481Z,3.00
2023-03-11T05:38:26.993Z,3.40
2023-03-11T05:43:29.550Z,2.30
2023-03-11T05:48:32.375Z,3.50
2023-03-11T05:53:35.235Z,4.00
2023-03-11T05:58:37.744Z,4.70
2023-03-11T06:03:41.128Z,4.30
2023-03-11T06:08:49.588Z,6.00
2023-03-11T06:13:56.632Z,4.80
2023-03-11T06:19:00.765Z,3.80
2023-03-11T06:24:03.546Z,4.70
2023-03-11T06:29:12.343Z,5.60
2023-03-11T06:34:14.996Z,5.00
2023-03-11T06:39:17.624Z,8.60
2023-03-11T06:44:20.184Z,7.50
2023-03-11T06:49:22.647Z,6.00
2023-03-11T06:54:25.217Z,10.50
2023-03-11T06:59:28.391Z,5.10
2023-03-11T07:04:31.427Z,4.80
2023-03-11T07:09:34.042Z,6.60
2023-03-11T07:14:36.520Z,6.90
2023-03-11T07:19:40.298Z,6.90
2023-03-11T07:24:46.669Z,6.40
2023-03-11T07:34:52.186Z,5.40
2023-03-11T07:39:54.867Z,2.80
2023-03-11T07:44:57.349Z,7.60
2023-03-11T07:50:00.056Z,6.90
2023-03-11T07:55:02.889Z,6.80
2023-03-11T08:00:06.119Z,4.60
2023-03-11T08:05:09.517Z,7.00
2023-03-11T08:10:12.837Z,5.80
2023-03-11T08:15:15.460Z,4.10
2023-03-11T08:20:18.045Z,7.00
2023-03-11T08:25:20.626Z,6.50
2023-03-11T08:30:23.555Z,5.70
2023-03-11T08:35:26.955Z,5.70
2023-03-11T08:40:30.175Z,4.40
2023-03-11T08:45:32.751Z,7.60
2023-03-11T08:50:47.391Z,6.90
2023-03-11T08:55:55.652Z,7.20
2023-03-11T09:00:58.242Z,5.80
2023-03-11T09:06:02.326Z,7.40
2023-03-11T09:11:05.602Z,6.60
2023-03-11T09:16:19.943Z,7.90
2023-03-11T09:21:22.914Z,10.20
2023-03-11T09:26:25.616Z,7.20
2023-03-11T09:31:28.459Z,9.50
2023-03-11T09:36:31.102Z,13.60
2023-03-11T09:41:55.669Z,9.00
2023-03-11T09:47:07.140Z,9.10
2023-03-11T09:52:12.721Z,10.90
2023-03-11T09:57:32.312Z,9.00
2023-03-11T10:02:36.579Z,11.10
2023-03-11T10:07:49.773Z,9.10
2023-03-11T10:12:56.378Z,13.50
2023-03-11T10:18:23.647Z,4.80
2023-03-11T10:23:48.130Z,6.10
2023-03-11T10:29:23.604Z,5.40
2023-03-11T10:34:32.453Z,8.00
2023-03-11T10:39:35.079Z,5.70
2023-03-11T10:44:40.272Z,8.80
2023-03-11T10:49:42.780Z,9.00
2023-03-11T10:54:47.964Z,8.00
2023-03-11T10:59:55.704Z,8.00
2023-03-11T11:05:07.240Z,7.90
2023-03-11T11:10:14.618Z,8.30
2023-03-11T11:15:23.999Z,8.70
2023-03-11T11:20:28.032Z,6.90
2023-03-11T11:25:36.312Z,6.80
2023-03-11T11:30:53.129Z,8.00
2023-03-11T11:36:04.195Z,7.50
2023-03-11T11:41:09.302Z,6.40
2023-03-11T11:46:20.631Z,5.30
2023-03-11T11:51:41.375Z,6.00
2023-03-11T11:56:45.458Z,5.30
2023-03-11T12:02:18.738Z,9.20
2023-03-11T12:07:45.874Z,7.60
2023-03-11T12:13:18.640Z,6.30
2023-03-11T12:18:47.648Z,5.30
2023-03-11T12:24:15.375Z,5.60
2023-03-11T12:29:28.717Z,4.80
2023-03-11T12:34:35.224Z,7.30
2023-03-11T12:39:37.886Z,6.90
2023-03-11T12:44:41.331Z,6.20
2023-03-11T12:49:46.957Z,4.90
2023-03-11T12:55:18.587Z,6.60
2023-03-11T13:00:42.992Z,5.10
2023-03-11T13:06:19.963Z,4.80
2023-03-11T13:11:31.710Z,9.00
2023-03-11T13:16:39.595Z,3.50
2023-03-11T13:21:42.207Z,5.60
2023-03-11T13:26:52.859Z,7.60
2023-03-11T13:32:32.820Z,6.70
2023-03-11T13:37:49.041Z,4.10
2023-03-11T13:42:57.604Z,4.20
2023-03-11T13:48:05.857Z,6.70
2023-03-11T13:53:17.483Z,4.60
2023-03-11T13:58:23.426Z,4.70
2023-03-11T14:03:29.280Z,4.70
2023-03-11T14:08:40.856Z,5.10
2023-03-11T14:13:50.053Z,7.50
2023-03-11T14:19:15.999Z,4.50
2023-03-11T14:24:29.922Z,6.10
2023-03-11T14:29:37.749Z,10.10
2023-03-11T14:34:41.082Z,4.90
2023-03-11T14:39:46.265Z,6.40
2023-03-11T14:44:56.268Z,8.70
2023-03-11T14:50:00.106Z,4.50
2023-03-11T14:55:06.627Z,7.70
2023-03-11T15:00:33.838Z,5.20
2023-03-11T15:05:46.588Z,5.50
2023-03-11T15:11:17.700Z,6.30
2023-03-11T15:16:30.842Z,8.60
2023-03-11T15:21:33.397Z,7.50
2023-03-11T15:26:38.140Z,5.30
2023-03-11T15:31:42.550Z,5.30
2023-03-11T15:36:56.737Z,8.20
2023-03-11T15:42:01.191Z,6.30
2023-03-11T15:47:04.306Z,6.50
2023-03-11T15:52:07.395Z,6.60
2023-03-11T15:57:21.428Z,7.00
2023-03-11T16:02:27.239Z,7.90
2023-03-11T16:07:39.590Z,6.70
2023-03-11T16:12:43.076Z,5.60
2023-03-11T16:17:49.778Z,6.80
2023-03-11T16:22:55.005Z,6.40
2023-03-11T16:27:57.994Z,6.20
2023-03-11T16:33:03.350Z,8.70
2023-03-11T16:38:07.932Z,10.60
2023-03-11T16:43:13.499Z,7.80
2023-03-11T16:48:16.007Z,12.60
2023-03-11T16:53:18.635Z,7.30
2023-03-11T16:58:21.722Z,5.50
2023-03-11T17:03:25.963Z,7.60
2023-03-11T17:08:28.632Z,6.40
2023-03-11T17:13:31.280Z,7.60
2023-03-11T17:18:33.764Z,6.60
2023-03-11T17:23:36.543Z,8.00
2023-03-11T17:28:42.456Z,4.80
2023-03-11T17:38:51.069Z,10.00
2023-03-11T17:43:54.180Z,6.70
2023-03-11T17:48:56.771Z,7.70
2023-03-11T17:53:59.873Z,6.70
2023-03-11T17:59:02.461Z,7.90
2023-03-11T18:04:05.141Z,8.20
2023-03-11T18:09:08.869Z,5.30
2023-03-11T18:14:12.625Z,4.40
2023-03-11T18:19:15.186Z,5.60
2023-03-11T18:24:18.159Z,10.90
2023-03-11T18:29:20.741Z,9.00
2023-03-11T18:34:23.304Z,5.60
2023-03-11T18:39:25.958Z,4.90
2023-03-11T18:44:28.797Z,7.10
2023-03-11T18:49:31.326Z,7.90
2023-03-11T18:54:34.032Z,9.70
2023-03-11T18:59:36.667Z,10.70
2023-03-11T19:04:39.507Z,10.90
2023-03-11T19:09:42.217Z,16.50
2023-03-11T19:14:44.722Z,21.50
2023-03-11T19:19:47.310Z,12.50
2023-03-11T19:24:52.608Z,9.60
2023-03-11T19:29:55.173Z,6.60
2023-03-11T19:34:57.760Z,6.90
2023-03-11T19:40:00.313Z,7.80
2023-03-11T19:45:03.018Z,7.50
2023-03-11T19:50:06.297Z,5.60
2023-03-11T19:55:09.059Z,8.00
2023-03-11T20:00:12.159Z,8.00
2023-03-11T20:05:14.875Z,18.20
2023-03-11T20:10:17.752Z,19.40
2023-03-11T20:15:20.299Z,25.70
2023-03-11T20:20:23.337Z,22.30
2023-03-11T20:25:29.493Z,13.20
2023-03-11T20:30:32.127Z,15.00
2023-03-11T20:35:35.237Z,12.00
2023-03-11T20:40:37.847Z,10.80
2023-03-11T20:45:40.552Z,12.70
2023-03-11T20:50:43.147Z,18.70
2023-03-11T20:55:46.282Z,16.20
2023-03-11T21:00:49.057Z,14.10
2023-03-11T21:05:51.607Z,9.50
2023-03-11T21:11:00.058Z,9.80
2023-03-11T21:16:04.463Z,12.60
2023-03-11T21:21:08.363Z,9.70
2023-03-11T21:26:13.553Z,18.90
2023-03-11T21:31:19.009Z,11.80
2023-03-11T21:36:22.646Z,12.20
2023-03-11T21:41:27.088Z,16.70
2023-03-11T21:46:32.098Z,17.90
2023-03-11T21:51:34.766Z,14.00
2023-03-11T21:56:37.417Z,12.90
2023-03-11T22:01:40.058Z,9.60
2023-03-11T22:06:42.745Z,7.20
2023-03-11T22:11:45.328Z,10.90
2023-03-11T22:16:47.918Z,12.50
2023-03-11T22:21:50.619Z,9.10
2023-03-11T22:26:53.175Z,12.80
2023-03-11T22:31:55.767Z,17.80
2023-03-11T22:37:00.426Z,10.20
2023-03-11T22:42:02.945Z,12.20
2023-03-11T22:47:05.669Z,8.00
2023-03-11T22:52:08.525Z,6.70
2023-03-11T22:57:11.069Z,17.50
2023-03-11T23:02:13.553Z,17.90
2023-03-11T23:07:16.053Z,13.20
2023-03-11T23:12:18.560Z,7.80
2023-03-11T23:17:21.087Z,14.60
2023-03-11T23:22:24.620Z,13.40
2023-03-11T23:27:28.573Z,13.50
2023-03-11T23:32:31.112Z,11.20
2023-03-11T23:37:33.654Z,10.90
2023-03-11T23:42:36.180Z,10.70
2023-03-11T23:47:38.679Z,16.10
2023-03-11T23:52:41.719Z,7.50
2023-03-11T23:57:44.201Z,7.20
